sensor_id;sensor_type;location;lat;lon;timestamp;P1;durP1;ratioP1;P2;durP2;ratioP2
583;SDS011;27024;54.068;12.116;2022-11-11T00:01:13;4.68;;;0.60;;
583;SDS011;27024;54.068;12.116;2022-11-11T00:03:42;4.40;;;1.40;;
583;SDS011;27024;54.068;12.116;2022-11-11T00:06:10;8.00;;;1.25;;
583;SDS011;27024;54.068;12.116;2022-11-11T00:08:39;9.13;;;1.73;;
583;SDS011;27024;54.068;12.116;2022-11-11T00:11:07;10.23;;;1.30;;
583;SDS011;27024;54.068;12.116;2022-11-11T00:13:35;6.78;;;1.20;;
583;SDS011;27024;54.068;12.116;2022-11-11T00:16:14;5.13;;;1.02;;
583;SDS011;27024;54.068;12.116;2022-11-11T00:18:43;7.13;;;1.30;;
583;SDS011;27024;54.068;12.116;2022-11-11T00:21:29;10.32;;;1.17;;
583;SDS011;27024;54.068;12.116;2022-11-11T00:24:18;8.65;;;1.10;;
583;SDS011;27024;54.068;12.116;2022-11-11T00:27:04;6.82;;;1.30;;
583;SDS011;27024;54.068;12.116;2022-11-11T00:29:32;6.45;;;1.17;;
583;SDS011;27024;54.068;12.116;2022-11-11T00:31:59;10.73;;;1.63;;
583;SDS011;27024;54.068;12.116;2022-11-11T00:34:44;6.85;;;1.63;;
583;SDS011;27024;54.068;12.116;2022-11-11T00:37:32;3.60;;;1.27;;
583;SDS011;27024;54.068;12.116;2022-11-11T00:39:59;7.85;;;1.50;;
583;SDS011;27024;54.068;12.116;2022-11-11T00:42:27;7.75;;;1.60;;
583;SDS011;27024;54.068;12.116;2022-11-11T00:44:54;8.93;;;1.63;;
583;SDS011;27024;54.068;12.116;2022-11-11T00:47:21;7.95;;;2.35;;
583;SDS011;27024;54.068;12.116;2022-11-11T00:50:10;6.45;;;2.30;;
583;SDS011;27024;54.068;12.116;2022-11-11T00:53:13;7.43;;;2.45;;
583;SDS011;27024;54.068;12.116;2022-11-11T00:55:52;5.13;;;2.35;;
583;SDS011;27024;54.068;12.116;2022-11-11T00:58:19;6.50;;;2.33;;
583;SDS011;27024;54.068;12.116;2022-11-11T01:00:48;10.32;;;3.95;;
583;SDS011;27024;54.068;12.116;2022-11-11T01:03:19;9.35;;;3.03;;
583;SDS011;27024;54.068;12.116;2022-11-11T01:05:48;10.15;;;3.17;;
583;SDS011;27024;54.068;12.116;2022-11-11T01:08:15;12.25;;;4.00;;
583;SDS011;27024;54.068;12.116;2022-11-11T01:10:42;10.30;;;3.90;;
583;SDS011;27024;54.068;12.116;2022-11-11T01:15:48;9.18;;;4.28;;
583;SDS011;27024;54.068;12.116;2022-11-11T01:18:18;7.43;;;4.05;;
583;SDS011;27024;54.068;12.116;2022-11-11T01:23:30;11.43;;;4.50;;
583;SDS011;27024;54.068;12.116;2022-11-11T01:26:00;12.23;;;4.90;;
583;SDS011;27024;54.068;12.116;2022-11-11T01:28:29;10.70;;;4.95;;
583;SDS011;27024;54.068;12.116;2022-11-11T01:31:00;9.48;;;4.85;;
583;SDS011;27024;54.068;12.116;2022-11-11T01:33:31;8.85;;;5.05;;
583;SDS011;27024;54.068;12.116;2022-11-11T01:36:06;9.13;;;4.80;;
583;SDS011;27024;54.068;12.116;2022-11-11T01:38:33;12.52;;;4.85;;
583;SDS011;27024;54.068;12.116;2022-11-11T01:41:01;11.80;;;4.90;;
583;SDS011;27024;54.068;12.116;2022-11-11T01:43:48;11.50;;;5.68;;
583;SDS011;27024;54.068;12.116;2022-11-11T01:46:32;9.00;;;4.63;;
583;SDS011;27024;54.068;12.116;2022-11-11T01:49:08;12.32;;;5.10;;
583;SDS011;27024;54.068;12.116;2022-11-11T01:54:42;10.85;;;4.85;;
583;SDS011;27024;54.068;12.116;2022-11-11T01:57:17;9.63;;;4.47;;
583;SDS011;27024;54.068;12.116;2022-11-11T01:59:49;9.15;;;4.68;;
583;SDS011;27024;54.068;12.116;2022-11-11T02:02:37;13.70;;;5.43;;
583;SDS011;27024;54.068;12.116;2022-11-11T02:05:09;13.18;;;5.40;;
583;SDS011;27024;54.068;12.116;2022-11-11T02:07:58;14.05;;;4.97;;
583;SDS011;27024;54.068;12.116;2022-11-11T02:11:00;10.30;;;4.90;;
583;SDS011;27024;54.068;12.116;2022-11-11T02:13:29;13.60;;;5.07;;
583;SDS011;27024;54.068;12.116;2022-11-11T02:16:15;12.02;;;6.20;;
583;SDS011;27024;54.068;12.116;2022-11-11T02:18:42;10.63;;;5.22;;
583;SDS011;27024;54.068;12.116;2022-11-11T02:21:11;15.15;;;5.80;;
583;SDS011;27024;54.068;12.116;2022-11-11T02:26:30;9.98;;;5.35;;
583;SDS011;27024;54.068;12.116;2022-11-11T02:29:00;9.77;;;5.00;;
583;SDS011;27024;54.068;12.116;2022-11-11T02:31:30;11.05;;;5.40;;
583;SDS011;27024;54.068;12.116;2022-11-11T02:33:58;12.93;;;5.55;;
583;SDS011;27024;54.068;12.116;2022-11-11T02:36:25;12.15;;;5.10;;
583;SDS011;27024;54.068;12.116;2022-11-11T02:38:52;10.07;;;5.68;;
583;SDS011;27024;54.068;12.116;2022-11-11T02:41:20;12.93;;;6.15;;
583;SDS011;27024;54.068;12.116;2022-11-11T02:44:05;9.80;;;5.70;;
583;SDS011;27024;54.068;12.116;2022-11-11T02:46:32;15.27;;;5.45;;
583;SDS011;27024;54.068;12.116;2022-11-11T02:48:59;11.40;;;5.43;;
583;SDS011;27024;54.068;12.116;2022-11-11T02:51:26;12.23;;;5.60;;
583;SDS011;27024;54.068;12.116;2022-11-11T02:53:53;12.80;;;5.50;;
583;SDS011;27024;54.068;12.116;2022-11-11T02:56:24;10.45;;;5.47;;
583;SDS011;27024;54.068;12.116;2022-11-11T02:59:10;9.85;;;5.22;;
583;SDS011;27024;54.068;12.116;2022-11-11T03:01:36;11.45;;;6.30;;
583;SDS011;27024;54.068;12.116;2022-11-11T03:04:04;16.25;;;6.30;;
583;SDS011;27024;54.068;12.116;2022-11-11T03:06:31;10.43;;;5.38;;
583;SDS011;27024;54.068;12.116;2022-11-11T03:08:58;10.07;;;6.22;;
583;SDS011;27024;54.068;12.116;2022-11-11T03:11:25;12.38;;;5.90;;
583;SDS011;27024;54.068;12.116;2022-11-11T03:13:54;15.07;;;6.03;;
583;SDS011;27024;54.068;12.116;2022-11-11T03:16:22;11.27;;;5.72;;
583;SDS011;27024;54.068;12.116;2022-11-11T03:19:08;9.85;;;5.65;;
583;SDS011;27024;54.068;12.116;2022-11-11T03:21:35;13.05;;;5.82;;
583;SDS011;27024;54.068;12.116;2022-11-11T03:24:23;11.85;;;6.20;;
583;SDS011;27024;54.068;12.116;2022-11-11T03:26:50;12.52;;;5.72;;
583;SDS011;27024;54.068;12.116;2022-11-11T03:29:17;13.40;;;5.80;;
583;SDS011;27024;54.068;12.116;2022-11-11T03:31:43;13.05;;;5.85;;
583;SDS011;27024;54.068;12.116;2022-11-11T03:34:10;10.50;;;5.70;;
583;SDS011;27024;54.068;12.116;2022-11-11T03:36:44;10.68;;;5.85;;
583;SDS011;27024;54.068;12.116;2022-11-11T03:39:29;14.45;;;5.72;;
583;SDS011;27024;54.068;12.116;2022-11-11T03:41:56;14.38;;;6.07;;
583;SDS011;27024;54.068;12.116;2022-11-11T03:44:23;7.25;;;5.22;;
583;SDS011;27024;54.068;12.116;2022-11-11T03:46:50;10.75;;;5.63;;
583;SDS011;27024;54.068;12.116;2022-11-11T03:49:16;12.35;;;5.82;;
583;SDS011;27024;54.068;12.116;2022-11-11T03:51:43;11.05;;;5.40;;
583;SDS011;27024;54.068;12.116;2022-11-11T03:54:10;11.45;;;5.22;;
583;SDS011;27024;54.068;12.116;2022-11-11T03:56:37;13.48;;;5.57;;
583;SDS011;27024;54.068;12.116;2022-11-11T03:59:03;11.52;;;5.03;;
583;SDS011;27024;54.068;12.116;2022-11-11T04:01:30;9.98;;;5.00;;
583;SDS011;27024;54.068;12.116;2022-11-11T04:04:15;14.68;;;5.05;;
583;SDS011;27024;54.068;12.116;2022-11-11T04:07:00;12.77;;;5.70;;
583;SDS011;27024;54.068;12.116;2022-11-11T04:09:46;13.23;;;4.78;;
583;SDS011;27024;54.068;12.116;2022-11-11T04:12:32;14.18;;;5.63;;
583;SDS011;27024;54.068;12.116;2022-11-11T04:15:21;13.50;;;5.32;;
583;SDS011;27024;54.068;12.116;2022-11-11T04:18:06;12.65;;;4.35;;
583;SDS011;27024;54.068;12.116;2022-11-11T04:20:33;14.50;;;6.00;;
583;SDS011;27024;54.068;12.116;2022-11-11T04:23:18;10.43;;;4.25;;
583;SDS011;27024;54.068;12.116;2022-11-11T04:25:45;11.32;;;4.88;;
583;SDS011;27024;54.068;12.116;2022-11-11T04:28:15;11.02;;;4.78;;
583;SDS011;27024;54.068;12.116;2022-11-11T04:31:00;11.57;;;4.78;;
583;SDS011;27024;54.068;12.116;2022-11-11T04:33:27;10.82;;;4.40;;
583;SDS011;27024;54.068;12.116;2022-11-11T04:35:54;13.93;;;5.45;;
583;SDS011;27024;54.068;12.116;2022-11-11T04:38:20;9.55;;;4.38;;
583;SDS011;27024;54.068;12.116;2022-11-11T04:41:06;14.07;;;4.50;;
583;SDS011;27024;54.068;12.116;2022-11-11T04:43:34;11.35;;;5.05;;
583;SDS011;27024;54.068;12.116;2022-11-11T04:46:21;8.05;;;4.47;;
583;SDS011;27024;54.068;12.116;2022-11-11T04:48:47;13.50;;;5.03;;
583;SDS011;27024;54.068;12.116;2022-11-11T04:51:14;12.70;;;4.38;;
583;SDS011;27024;54.068;12.116;2022-11-11T04:53:41;15.75;;;5.53;;
583;SDS011;27024;54.068;12.116;2022-11-11T04:56:08;10.80;;;4.85;;
583;SDS011;27024;54.068;12.116;2022-11-11T04:58:53;10.50;;;5.20;;
583;SDS011;27024;54.068;12.116;2022-11-11T05:01:40;12.70;;;4.93;;
583;SDS011;27024;54.068;12.116;2022-11-11T05:04:25;11.23;;;5.20;;
583;SDS011;27024;54.068;12.116;2022-11-11T05:06:52;11.18;;;4.60;;
583;SDS011;27024;54.068;12.116;2022-11-11T05:09:37;14.25;;;4.38;;
583;SDS011;27024;54.068;12.116;2022-11-11T05:12:04;12.35;;;5.28;;
583;SDS011;27024;54.068;12.116;2022-11-11T05:14:31;11.73;;;4.32;;
583;SDS011;27024;54.068;12.116;2022-11-11T05:17:16;8.35;;;4.90;;
583;SDS011;27024;54.068;12.116;2022-11-11T05:20:02;14.80;;;4.45;;
583;SDS011;27024;54.068;12.116;2022-11-11T05:22:47;13.23;;;5.10;;
583;SDS011;27024;54.068;12.116;2022-11-11T05:25:14;13.05;;;5.38;;
583;SDS011;27024;54.068;12.116;2022-11-11T05:27:56;12.07;;;5.10;;
583;SDS011;27024;54.068;12.116;2022-11-11T05:30:23;12.82;;;5.18;;
583;SDS011;27024;54.068;12.116;2022-11-11T05:32:53;13.02;;;5.45;;
583;SDS011;27024;54.068;12.116;2022-11-11T05:35:21;9.75;;;4.78;;
583;SDS011;27024;54.068;12.116;2022-11-11T05:37:47;12.93;;;5.10;;
583;SDS011;27024;54.068;12.116;2022-11-11T05:40:34;16.17;;;5.55;;
583;SDS011;27024;54.068;12.116;2022-11-11T05:43:01;14.98;;;5.80;;
583;SDS011;27024;54.068;12.116;2022-11-11T05:45:28;10.80;;;5.28;;
583;SDS011;27024;54.068;12.116;2022-11-11T05:47:57;14.80;;;5.82;;
583;SDS011;27024;54.068;12.116;2022-11-11T05:52:53;11.77;;;5.95;;
583;SDS011;27024;54.068;12.116;2022-11-11T05:55:21;20.60;;;6.82;;
583;SDS011;27024;54.068;12.116;2022-11-11T05:57:48;14.85;;;5.82;;
583;SDS011;27024;54.068;12.116;2022-11-11T06:00:15;15.65;;;5.65;;
583;SDS011;27024;54.068;12.116;2022-11-11T06:02:42;11.57;;;5.60;;
583;SDS011;27024;54.068;12.116;2022-11-11T06:05:09;13.98;;;6.00;;
583;SDS011;27024;54.068;12.116;2022-11-11T06:07:36;12.98;;;6.22;;
583;SDS011;27024;54.068;12.116;2022-11-11T06:10:05;13.02;;;5.72;;
583;SDS011;27024;54.068;12.116;2022-11-11T06:12:50;15.02;;;5.50;;
583;SDS011;27024;54.068;12.116;2022-11-11T06:15:36;12.52;;;5.82;;
583;SDS011;27024;54.068;12.116;2022-11-11T06:18:04;13.77;;;5.85;;
583;SDS011;27024;54.068;12.116;2022-11-11T06:20:31;13.98;;;5.57;;
583;SDS011;27024;54.068;12.116;2022-11-11T06:23:03;13.10;;;5.85;;
583;SDS011;27024;54.068;12.116;2022-11-11T06:25:31;14.70;;;5.78;;
583;SDS011;27024;54.068;12.116;2022-11-11T06:28:18;15.68;;;5.45;;
583;SDS011;27024;54.068;12.116;2022-11-11T06:30:45;11.32;;;5.47;;
583;SDS011;27024;54.068;12.116;2022-11-11T06:33:17;13.23;;;5.07;;
583;SDS011;27024;54.068;12.116;2022-11-11T06:35:45;15.15;;;5.78;;
583;SDS011;27024;54.068;12.116;2022-11-11T06:38:13;12.07;;;5.38;;
583;SDS011;27024;54.068;12.116;2022-11-11T06:40:43;11.93;;;4.90;;
583;SDS011;27024;54.068;12.116;2022-11-11T06:43:10;10.45;;;5.18;;
583;SDS011;27024;54.068;12.116;2022-11-11T06:45:37;15.52;;;5.32;;
583;SDS011;27024;54.068;12.116;2022-11-11T06:48:04;10.85;;;5.28;;
583;SDS011;27024;54.068;12.116;2022-11-11T06:50:31;17.33;;;5.30;;
583;SDS011;27024;54.068;12.116;2022-11-11T06:53:11;15.48;;;5.72;;
583;SDS011;27024;54.068;12.116;2022-11-11T06:55:39;14.40;;;5.20;;
583;SDS011;27024;54.068;12.116;2022-11-11T06:58:08;14.52;;;5.97;;
583;SDS011;27024;54.068;12.116;2022-11-11T07:00:36;14.90;;;5.10;;
583;SDS011;27024;54.068;12.116;2022-11-11T07:03:05;13.60;;;4.53;;
583;SDS011;27024;54.068;12.116;2022-11-11T07:05:33;10.65;;;5.18;;
583;SDS011;27024;54.068;12.116;2022-11-11T07:08:00;12.88;;;4.97;;
583;SDS011;27024;54.068;12.116;2022-11-11T07:10:31;11.88;;;4.90;;
583;SDS011;27024;54.068;12.116;2022-11-11T07:12:59;12.25;;;5.32;;
583;SDS011;27024;54.068;12.116;2022-11-11T07:15:26;12.05;;;4.95;;
583;SDS011;27024;54.068;12.116;2022-11-11T07:17:53;13.25;;;5.53;;
583;SDS011;27024;54.068;12.116;2022-11-11T07:20:20;9.88;;;5.18;;
583;SDS011;27024;54.068;12.116;2022-11-11T07:22:46;15.68;;;5.75;;
583;SDS011;27024;54.068;12.116;2022-11-11T07:25:13;12.05;;;4.78;;
583;SDS011;27024;54.068;12.116;2022-11-11T07:27:40;12.38;;;5.55;;
583;SDS011;27024;54.068;12.116;2022-11-11T07:30:09;12.90;;;4.93;;
583;SDS011;27024;54.068;12.116;2022-11-11T07:32:47;15.15;;;5.28;;
583;SDS011;27024;54.068;12.116;2022-11-11T07:35:15;15.73;;;5.50;;
583;SDS011;27024;54.068;12.116;2022-11-11T07:37:43;14.48;;;4.95;;
583;SDS011;27024;54.068;12.116;2022-11-11T07:40:11;14.82;;;4.80;;
583;SDS011;27024;54.068;12.116;2022-11-11T07:42:40;12.23;;;4.97;;
583;SDS011;27024;54.068;12.116;2022-11-11T07:45:08;16.25;;;6.03;;
583;SDS011;27024;54.068;12.116;2022-11-11T07:47:36;14.93;;;5.13;;
583;SDS011;27024;54.068;12.116;2022-11-11T07:50:03;12.15;;;5.05;;
583;SDS011;27024;54.068;12.116;2022-11-11T07:52:33;11.77;;;5.10;;
583;SDS011;27024;54.068;12.116;2022-11-11T07:55:03;10.63;;;5.85;;
583;SDS011;27024;54.068;12.116;2022-11-11T07:57:31;9.63;;;5.07;;
583;SDS011;27024;54.068;12.116;2022-11-11T07:59:58;10.02;;;5.18;;
583;SDS011;27024;54.068;12.116;2022-11-11T08:02:25;13.13;;;6.10;;
583;SDS011;27024;54.068;12.116;2022-11-11T08:04:51;15.45;;;5.65;;
583;SDS011;27024;54.068;12.116;2022-11-11T08:07:21;10.38;;;5.20;;
583;SDS011;27024;54.068;12.116;2022-11-11T08:09:49;16.58;;;5.90;;
583;SDS011;27024;54.068;12.116;2022-11-11T08:12:17;15.60;;;6.35;;
583;SDS011;27024;54.068;12.116;2022-11-11T08:15:03;11.50;;;5.60;;
583;SDS011;27024;54.068;12.116;2022-11-11T08:17:37;12.63;;;5.72;;
583;SDS011;27024;54.068;12.116;2022-11-11T08:20:07;17.85;;;5.95;;
583;SDS011;27024;54.068;12.116;2022-11-11T08:22:36;16.30;;;6.25;;
583;SDS011;27024;54.068;12.116;2022-11-11T08:25:04;15.55;;;6.20;;
583;SDS011;27024;54.068;12.116;2022-11-11T08:27:34;16.35;;;6.28;;
583;SDS011;27024;54.068;12.116;2022-11-11T08:30:02;16.00;;;5.93;;
583;SDS011;27024;54.068;12.116;2022-11-11T08:32:29;11.88;;;6.07;;
583;SDS011;27024;54.068;12.116;2022-11-11T08:34:56;12.38;;;5.88;;
583;SDS011;27024;54.068;12.116;2022-11-11T08:37:22;16.75;;;6.32;;
583;SDS011;27024;54.068;12.116;2022-11-11T08:39:49;14.82;;;6.75;;
583;SDS011;27024;54.068;12.116;2022-11-11T08:42:17;16.42;;;6.78;;
583;SDS011;27024;54.068;12.116;2022-11-11T08:44:44;19.17;;;6.95;;
583;SDS011;27024;54.068;12.116;2022-11-11T08:47:12;14.55;;;6.20;;
583;SDS011;27024;54.068;12.116;2022-11-11T08:49:38;17.30;;;7.70;;
583;SDS011;27024;54.068;12.116;2022-11-11T08:52:05;15.00;;;7.15;;
583;SDS011;27024;54.068;12.116;2022-11-11T08:54:32;16.02;;;7.10;;
583;SDS011;27024;54.068;12.116;2022-11-11T08:56:59;17.15;;;7.13;;
583;SDS011;27024;54.068;12.116;2022-11-11T08:59:26;17.15;;;6.55;;
583;SDS011;27024;54.068;12.116;2022-11-11T09:01:52;12.07;;;6.50;;
583;SDS011;27024;54.068;12.116;2022-11-11T09:04:19;15.88;;;6.55;;
583;SDS011;27024;54.068;12.116;2022-11-11T09:07:07;16.55;;;6.43;;
583;SDS011;27024;54.068;12.116;2022-11-11T09:09:34;13.00;;;6.88;;
583;SDS011;27024;54.068;12.116;2022-11-11T09:12:01;16.13;;;6.95;;
583;SDS011;27024;54.068;12.116;2022-11-11T09:14:29;16.60;;;6.03;;
583;SDS011;27024;54.068;12.116;2022-11-11T09:16:55;19.20;;;7.03;;
583;SDS011;27024;54.068;12.116;2022-11-11T09:19:22;13.98;;;7.63;;
583;SDS011;27024;54.068;12.116;2022-11-11T09:21:50;15.73;;;7.18;;
583;SDS011;27024;54.068;12.116;2022-11-11T09:24:18;16.23;;;6.65;;
583;SDS011;27024;54.068;12.116;2022-11-11T09:26:48;18.95;;;7.53;;
583;SDS011;27024;54.068;12.116;2022-11-11T09:29:16;17.05;;;7.22;;
583;SDS011;27024;54.068;12.116;2022-11-11T09:31:44;18.20;;;7.60;;
583;SDS011;27024;54.068;12.116;2022-11-11T09:34:12;16.80;;;7.03;;
583;SDS011;27024;54.068;12.116;2022-11-11T09:36:40;12.02;;;6.10;;
583;SDS011;27024;54.068;12.116;2022-11-11T09:39:07;12.68;;;6.25;;
583;SDS011;27024;54.068;12.116;2022-11-11T09:41:44;17.60;;;6.53;;
583;SDS011;27024;54.068;12.116;2022-11-11T09:47:02;20.23;;;8.35;;
583;SDS011;27024;54.068;12.116;2022-11-11T09:49:42;14.77;;;6.97;;
583;SDS011;27024;54.068;12.116;2022-11-11T09:52:13;15.07;;;7.15;;
583;SDS011;27024;54.068;12.116;2022-11-11T09:54:50;13.27;;;6.07;;
583;SDS011;27024;54.068;12.116;2022-11-11T10:00:15;16.00;;;7.68;;
583;SDS011;27024;54.068;12.116;2022-11-11T10:02:50;17.98;;;6.78;;
583;SDS011;27024;54.068;12.116;2022-11-11T10:05:20;12.77;;;6.88;;
583;SDS011;27024;54.068;12.116;2022-11-11T10:07:56;17.50;;;6.95;;
583;SDS011;27024;54.068;12.116;2022-11-11T10:10:45;14.02;;;6.07;;
583;SDS011;27024;54.068;12.116;2022-11-11T10:13:19;17.13;;;6.80;;
583;SDS011;27024;54.068;12.116;2022-11-11T10:18:33;15.45;;;6.90;;
583;SDS011;27024;54.068;12.116;2022-11-11T10:21:17;15.02;;;7.22;;
583;SDS011;27024;54.068;12.116;2022-11-11T10:23:54;18.00;;;7.40;;
583;SDS011;27024;54.068;12.116;2022-11-11T10:26:59;13.98;;;7.43;;
583;SDS011;27024;54.068;12.116;2022-11-11T10:29:18;18.38;;;7.63;;
583;SDS011;27024;54.068;12.116;2022-11-11T10:31:57;12.93;;;7.40;;
583;SDS011;27024;54.068;12.116;2022-11-11T10:34:32;17.95;;;7.65;;
583;SDS011;27024;54.068;12.116;2022-11-11T10:37:00;13.70;;;7.55;;
583;SDS011;27024;54.068;12.116;2022-11-11T10:39:31;18.40;;;8.18;;
583;SDS011;27024;54.068;12.116;2022-11-11T10:42:15;16.50;;;7.95;;
583;SDS011;27024;54.068;12.116;2022-11-11T10:44:43;15.43;;;8.07;;
583;SDS011;27024;54.068;12.116;2022-11-11T10:47:13;16.83;;;7.63;;
583;SDS011;27024;54.068;12.116;2022-11-11T10:50:00;18.08;;;7.53;;
583;SDS011;27024;54.068;12.116;2022-11-11T10:52:37;19.20;;;8.00;;
583;SDS011;27024;54.068;12.116;2022-11-11T10:58:04;17.08;;;8.23;;
583;SDS011;27024;54.068;12.116;2022-11-11T11:00:50;17.58;;;8.40;;
583;SDS011;27024;54.068;12.116;2022-11-11T11:03:23;14.13;;;8.00;;
583;SDS011;27024;54.068;12.116;2022-11-11T11:08:36;13.82;;;9.20;;
583;SDS011;27024;54.068;12.116;2022-11-11T11:11:13;16.23;;;8.43;;
583;SDS011;27024;54.068;12.116;2022-11-11T11:13:48;17.88;;;8.45;;
583;SDS011;27024;54.068;12.116;2022-11-11T11:16:24;19.88;;;9.45;;
583;SDS011;27024;54.068;12.116;2022-11-11T11:19:13;14.98;;;9.00;;
583;SDS011;27024;54.068;12.116;2022-11-11T11:21:54;16.58;;;9.00;;
583;SDS011;27024;54.068;12.116;2022-11-11T11:24:26;19.25;;;9.50;;
583;SDS011;27024;54.068;12.116;2022-11-11T11:26:55;18.92;;;9.73;;
583;SDS011;27024;54.068;12.116;2022-11-11T11:32:11;17.65;;;9.80;;
583;SDS011;27024;54.068;12.116;2022-11-11T11:34:47;21.23;;;10.10;;
583;SDS011;27024;54.068;12.116;2022-11-11T11:37:16;23.23;;;10.73;;
583;SDS011;27024;54.068;12.116;2022-11-11T11:39:45;16.55;;;9.20;;
583;SDS011;27024;54.068;12.116;2022-11-11T11:45:14;17.02;;;9.75;;
583;SDS011;27024;54.068;12.116;2022-11-11T11:59:15;19.08;;;10.18;;
583;SDS011;27024;54.068;12.116;2022-11-11T12:12:39;22.42;;;10.38;;
583;SDS011;27024;54.068;12.116;2022-11-11T12:23:40;20.33;;;9.30;;
583;SDS011;27024;54.068;12.116;2022-11-11T12:26:12;19.75;;;9.82;;
583;SDS011;27024;54.068;12.116;2022-11-11T12:34:44;19.38;;;10.25;;
583;SDS011;27024;54.068;12.116;2022-11-11T12:47:48;19.67;;;8.93;;
583;SDS011;27024;54.068;12.116;2022-11-11T12:50:40;16.50;;;8.05;;
583;SDS011;27024;54.068;12.116;2022-11-11T12:53:46;19.35;;;8.63;;
583;SDS011;27024;54.068;12.116;2022-11-11T12:59:19;17.25;;;8.05;;
583;SDS011;27024;54.068;12.116;2022-11-11T13:10:28;13.65;;;8.95;;
583;SDS011;27024;54.068;12.116;2022-11-11T13:16:14;17.40;;;7.22;;
583;SDS011;27024;54.068;12.116;2022-11-11T13:18:55;15.07;;;7.88;;
583;SDS011;27024;54.068;12.116;2022-11-11T13:21:33;16.20;;;7.95;;
583;SDS011;27024;54.068;12.116;2022-11-11T13:24:11;16.50;;;7.93;;
583;SDS011;27024;54.068;12.116;2022-11-11T13:26:44;18.38;;;8.82;;
583;SDS011;27024;54.068;12.116;2022-11-11T13:29:36;12.35;;;7.47;;
583;SDS011;27024;54.068;12.116;2022-11-11T13:32:10;12.82;;;6.93;;
583;SDS011;27024;54.068;12.116;2022-11-11T13:34:39;15.07;;;7.78;;
583;SDS011;27024;54.068;12.116;2022-11-11T13:37:08;13.07;;;7.10;;
583;SDS011;27024;54.068;12.116;2022-11-11T13:40:02;14.30;;;8.13;;
583;SDS011;27024;54.068;12.116;2022-11-11T13:42:37;14.73;;;8.00;;
583;SDS011;27024;54.068;12.116;2022-11-11T13:45:06;14.63;;;8.48;;
583;SDS011;27024;54.068;12.116;2022-11-11T13:47:45;16.25;;;9.20;;
583;SDS011;27024;54.068;12.116;2022-11-11T13:53:01;17.23;;;9.15;;
583;SDS011;27024;54.068;12.116;2022-11-11T13:55:35;16.27;;;8.60;;
583;SDS011;27024;54.068;12.116;2022-11-11T14:00:35;16.02;;;8.75;;
583;SDS011;27024;54.068;12.116;2022-11-11T14:03:27;14.10;;;8.00;;
583;SDS011;27024;54.068;12.116;2022-11-11T14:18:58;16.73;;;9.35;;
583;SDS011;27024;54.068;12.116;2022-11-11T14:27:00;15.95;;;9.32;;
583;SDS011;27024;54.068;12.116;2022-11-11T14:29:29;17.35;;;9.18;;
583;SDS011;27024;54.068;12.116;2022-11-11T14:39:44;19.85;;;10.00;;
583;SDS011;27024;54.068;12.116;2022-11-11T14:45:01;16.38;;;9.77;;
583;SDS011;27024;54.068;12.116;2022-11-11T14:49:57;16.50;;;10.00;;
583;SDS011;27024;54.068;12.116;2022-11-11T15:00:48;16.17;;;10.02;;
583;SDS011;27024;54.068;12.116;2022-11-11T15:30:17;20.42;;;10.70;;
583;SDS011;27024;54.068;12.116;2022-11-11T15:38:19;18.40;;;10.95;;
583;SDS011;27024;54.068;12.116;2022-11-11T15:40:47;18.92;;;10.98;;
583;SDS011;27024;54.068;12.116;2022-11-11T15:43:17;19.00;;;10.82;;
583;SDS011;27024;54.068;12.116;2022-11-11T15:45:54;17.77;;;10.95;;
583;SDS011;27024;54.068;12.116;2022-11-11T15:50:55;19.23;;;11.40;;
583;SDS011;27024;54.068;12.116;2022-11-11T15:53:23;20.08;;;10.95;;
583;SDS011;27024;54.068;12.116;2022-11-11T15:55:53;21.17;;;11.43;;
583;SDS011;27024;54.068;12.116;2022-11-11T15:58:26;18.42;;;11.48;;
583;SDS011;27024;54.068;12.116;2022-11-11T16:00:55;22.67;;;11.35;;
583;SDS011;27024;54.068;12.116;2022-11-11T16:03:33;20.80;;;10.40;;
583;SDS011;27024;54.068;12.116;2022-11-11T16:06:07;21.05;;;12.10;;
583;SDS011;27024;54.068;12.116;2022-11-11T16:08:39;19.75;;;11.70;;
583;SDS011;27024;54.068;12.116;2022-11-11T16:11:08;22.48;;;11.18;;
583;SDS011;27024;54.068;12.116;2022-11-11T16:13:40;23.45;;;11.82;;
583;SDS011;27024;54.068;12.116;2022-11-11T16:16:14;22.02;;;11.68;;
583;SDS011;27024;54.068;12.116;2022-11-11T16:18:53;21.95;;;11.70;;
583;SDS011;27024;54.068;12.116;2022-11-11T16:21:39;21.98;;;12.18;;
583;SDS011;27024;54.068;12.116;2022-11-11T16:24:31;25.25;;;14.43;;
583;SDS011;27024;54.068;12.116;2022-11-11T16:27:01;24.10;;;13.30;;
583;SDS011;27024;54.068;12.116;2022-11-11T16:29:35;22.63;;;13.05;;
583;SDS011;27024;54.068;12.116;2022-11-11T16:34:49;21.38;;;11.93;;
583;SDS011;27024;54.068;12.116;2022-11-11T16:37:20;20.40;;;10.52;;
583;SDS011;27024;54.068;12.116;2022-11-11T16:39:47;20.75;;;12.02;;
583;SDS011;27024;54.068;12.116;2022-11-11T16:42:18;23.92;;;12.70;;
583;SDS011;27024;54.068;12.116;2022-11-11T16:44:48;20.13;;;11.25;;
583;SDS011;27024;54.068;12.116;2022-11-11T16:52:29;23.65;;;12.07;;
583;SDS011;27024;54.068;12.116;2022-11-11T16:55:04;19.48;;;11.75;;
583;SDS011;27024;54.068;12.116;2022-11-11T16:57:31;22.75;;;11.27;;
583;SDS011;27024;54.068;12.116;2022-11-11T17:00:01;18.55;;;11.05;;
583;SDS011;27024;54.068;12.116;2022-11-11T17:02:30;19.20;;;11.27;;
583;SDS011;27024;54.068;12.116;2022-11-11T17:04:57;22.13;;;12.20;;
583;SDS011;27024;54.068;12.116;2022-11-11T17:12:33;21.75;;;11.88;;
583;SDS011;27024;54.068;12.116;2022-11-11T17:15:03;21.88;;;11.13;;
583;SDS011;27024;54.068;12.116;2022-11-11T17:17:30;21.33;;;11.60;;
583;SDS011;27024;54.068;12.116;2022-11-11T17:20:02;19.65;;;12.70;;
583;SDS011;27024;54.068;12.116;2022-11-11T17:22:31;21.38;;;13.25;;
583;SDS011;27024;54.068;12.116;2022-11-11T17:24:58;20.88;;;11.93;;
583;SDS011;27024;54.068;12.116;2022-11-11T17:27:27;20.92;;;11.70;;
583;SDS011;27024;54.068;12.116;2022-11-11T17:29:56;22.50;;;11.98;;
583;SDS011;27024;54.068;12.116;2022-11-11T17:32:23;19.20;;;11.85;;
583;SDS011;27024;54.068;12.116;2022-11-11T17:34:50;21.67;;;12.25;;
583;SDS011;27024;54.068;12.116;2022-11-11T17:37:16;21.95;;;12.27;;
583;SDS011;27024;54.068;12.116;2022-11-11T17:39:43;22.65;;;11.50;;
583;SDS011;27024;54.068;12.116;2022-11-11T17:42:10;19.35;;;11.50;;
583;SDS011;27024;54.068;12.116;2022-11-11T17:44:37;22.67;;;11.60;;
583;SDS011;27024;54.068;12.116;2022-11-11T17:47:04;19.02;;;10.93;;
583;SDS011;27024;54.068;12.116;2022-11-11T17:49:31;20.88;;;11.60;;
583;SDS011;27024;54.068;12.116;2022-11-11T17:52:18;17.63;;;10.30;;
583;SDS011;27024;54.068;12.116;2022-11-11T17:54:45;20.83;;;11.82;;
583;SDS011;27024;54.068;12.116;2022-11-11T17:57:12;19.77;;;11.20;;
583;SDS011;27024;54.068;12.116;2022-11-11T17:59:38;19.80;;;11.55;;
583;SDS011;27024;54.068;12.116;2022-11-11T18:02:05;20.33;;;11.57;;
583;SDS011;27024;54.068;12.116;2022-11-11T18:04:32;19.73;;;11.23;;
583;SDS011;27024;54.068;12.116;2022-11-11T18:06:59;18.30;;;11.50;;
583;SDS011;27024;54.068;12.116;2022-11-11T18:09:26;17.67;;;9.57;;
583;SDS011;27024;54.068;12.116;2022-11-11T18:11:53;16.42;;;9.93;;
583;SDS011;27024;54.068;12.116;2022-11-11T18:14:19;17.95;;;10.18;;
583;SDS011;27024;54.068;12.116;2022-11-11T18:16:46;15.55;;;9.38;;
583;SDS011;27024;54.068;12.116;2022-11-11T18:19:13;16.52;;;9.07;;
583;SDS011;27024;54.068;12.116;2022-11-11T18:21:40;17.92;;;10.02;;
583;SDS011;27024;54.068;12.116;2022-11-11T18:24:10;19.55;;;10.27;;
583;SDS011;27024;54.068;12.116;2022-11-11T18:26:37;18.30;;;9.65;;